Time;durP1;ratioP1;P1;durP2;ratioP2;P2;SDS_P1;SDS_P2;PMS_P1;PMS_P2;Temp;Humidity;BMP_temperature;BMP_pressure;BME280_temperature;BME280_humidity;BME280_pressure;Samples;Min_cycle;Max_cycle;Signal;HPM_P1;HPM_P2
2023/12/29 00:00:51;;;;;;;;;;;9.60;99.90;;;;;;2616553;54;20424;-75
2023/12/29 00:03:23;;;;;;;;;;;9.60;99.90;;;;;;2616526;54;19996;-75
2023/12/29 00:05:53;;;;;;;;;;;9.50;99.90;;;;;;2618945;47;19945;-75
2023/12/29 00:08:23;;;;;;;;;;;9.50;99.90;;;;;;2618125;39;20358;-75
2023/12/29 00:10:53;;;;;;;;;;;9.50;99.90;;;;;;2619230;54;19953;-75
2023/12/29 00:13:24;;;;;;;;;;;9.50;99.90;;;;;;2619562;47;19954;-76
2023/12/29 00:15:55;;;;;;;;;;;9.60;99.90;;;;;;2619295;47;19938;-75
2023/12/29 00:18:27;;;;;;;;;;;9.40;99.90;;;;;;2618553;54;19996;-75
2023/12/29 00:20:58;;;;;;;;;;;9.60;99.90;;;;;;2619371;47;19990;-76
2023/12/29 00:23:36;;;;;;;;;;;9.40;99.90;;;;;;2618422;54;19946;-75
2023/12/29 00:26:06;;;;;;;;;;;9.30;99.90;;;;;;2618099;47;19950;-77
2023/12/29 00:28:40;;;;;;;;;;;9.30;99.90;;;;;;2624039;47;19970;-77
2023/12/29 00:31:10;;;;;;;;;;;9.30;99.90;;;;;;2619995;54;19950;-74
2023/12/29 00:33:42;;;;;;;;;;;9.30;99.90;;;;;;2617729;54;19960;-75
2023/12/29 00:36:17;;;;;;;;;;;9.30;99.90;;;;;;2618967;54;19946;-75
2023/12/29 00:38:47;;;;;;;;;;;9.30;99.90;;;;;;2625076;54;19981;-74
2023/12/29 00:41:16;;;;;;;;;;;9.30;99.90;;;;;;2620324;47;19962;-74
2023/12/29 00:43:46;;;;;;;;;;;9.20;99.90;;;;;;2618307;54;19954;-74
2023/12/29 00:46:16;;;;;;;;;;;9.20;99.90;;;;;;2616999;47;20049;-74
2023/12/29 00:48:49;;;;;;;;;;;9.10;99.90;;;;;;2617043;47;19946;-74
2023/12/29 00:51:19;;;;;;;;;;;9.10;99.90;;;;;;2616975;54;20456;-75
2023/12/29 00:53:49;;;;;;;;;;;9.10;99.90;;;;;;2617526;39;20273;-74
2023/12/29 00:56:19;;;;;;;;;;;8.80;99.90;;;;;;2617190;47;19946;-74
2023/12/29 00:58:48;;;;;;;;;;;9.00;99.90;;;;;;2617973;54;19951;-74
2023/12/29 01:01:18;;;;;;;;;;;9.00;99.90;;;;;;2619650;54;19954;-75
2023/12/29 01:03:54;;;;;;;;;;;8.90;99.90;;;;;;2619181;31;20385;-74
2023/12/29 01:06:25;;;;;;;;;;;8.90;99.90;;;;;;2619200;39;20380;-73
2023/12/29 01:08:55;;;;;;;;;;;8.90;99.90;;;;;;2617918;54;20345;-74
2023/12/29 01:11:25;;;;;;;;;;;8.90;99.90;;;;;;2621705;54;19950;-76
2023/12/29 01:13:55;;;;;;;;;;;8.80;99.90;;;;;;2620856;47;20459;-74
2023/12/29 01:16:25;;;;;;;;;;;8.80;99.90;;;;;;2617891;47;20005;-74
2023/12/29 01:18:58;;;;;;;;;;;8.80;99.90;;;;;;2616967;54;19960;-75
2023/12/29 01:21:28;;;;;;;;;;;8.90;99.90;;;;;;2617279;47;19947;-74
2023/12/29 01:23:57;;;;;;;;;;;8.90;99.90;;;;;;2617154;54;19947;-74
2023/12/29 01:26:27;;;;;;;;;;;8.90;99.90;;;;;;2618932;54;19953;-74
2023/12/29 01:28:57;;;;;;;;;;;8.80;99.90;;;;;;2623547;54;19946;-75
2023/12/29 01:31:31;;;;;;;;;;;8.80;99.90;;;;;;2620696;54;19946;-74
2023/12/29 01:34:04;;;;;;;;;;;8.80;99.90;;;;;;2616851;47;19946;-74
2023/12/29 01:36:34;;;;;;;;;;;8.90;99.90;;;;;;2617340;54;19939;-74
2023/12/29 01:39:04;;;;;;;;;;;8.90;99.90;;;;;;2617074;54;19947;-74
2023/12/29 01:41:34;;;;;;;;;;;8.90;99.90;;;;;;2617838;54;19985;-74
2023/12/29 01:44:19;;;;;;;;;;;8.80;99.90;;;;;;2623073;39;20337;-74
2023/12/29 01:46:49;;;;;;;;;;;8.80;99.90;;;;;;2621459;47;19945;-74
2023/12/29 01:49:22;;;;;;;;;;;8.80;99.90;;;;;;2617710;54;20688;-74
2023/12/29 01:51:53;;;;;;;;;;;8.90;99.90;;;;;;2617392;47;19969;-74
2023/12/29 01:54:24;;;;;;;;;;;8.80;99.90;;;;;;2616509;47;19954;-75
2023/12/29 01:56:56;;;;;;;;;;;8.80;99.90;;;;;;2616852;54;19950;-75
2023/12/29 01:59:26;;;;;;;;;;;8.90;99.90;;;;;;2617648;49;20547;-74
2023/12/29 02:01:57;;;;;;;;;;;9.00;99.90;;;;;;2617719;54;20030;-75
2023/12/29 02:04:30;;;;;;;;;;;8.90;99.90;;;;;;2618291;54;19992;-75
2023/12/29 02:07:00;;;;;;;;;;;8.90;99.90;;;;;;2617757;49;20037;-76
2023/12/29 02:09:30;;;;;;;;;;;9.00;99.90;;;;;;2620581;47;19939;-74
2023/12/29 02:12:00;;;;;;;;;;;9.00;99.90;;;;;;2617373;54;19946;-75
2023/12/29 02:14:30;;;;;;;;;;;9.00;99.90;;;;;;2616776;54;19938;-74
2023/12/29 02:17:04;;;;;;;;;;;9.00;99.90;;;;;;2616949;54;19939;-75
2023/12/29 02:19:49;;;;;;;;;;;9.00;99.90;;;;;;2619651;54;19947;-75
2023/12/29 02:22:19;;;;;;;;;;;9.00;99.90;;;;;;2617886;46;19965;-74
2023/12/29 02:24:52;;;;;;;;;;;9.00;99.90;;;;;;2616853;54;19938;-74
2023/12/29 02:27:26;;;;;;;;;;;9.00;99.90;;;;;;2617051;54;19973;-75
2023/12/29 02:30:04;;;;;;;;;;;9.00;99.90;;;;;;2616929;47;19950;-75
2023/12/29 02:32:36;;;;;;;;;;;8.90;99.90;;;;;;2617143;54;19958;-75
2023/12/29 02:35:07;;;;;;;;;;;8.90;99.90;;;;;;2617564;54;19939;-75
2023/12/29 02:37:38;;;;;;;;;;;8.90;99.90;;;;;;2621746;54;19954;-75
2023/12/29 02:40:12;;;;;;;;;;;8.90;99.90;;;;;;2620825;54;20022;-74
2023/12/29 02:42:46;;;;;;;;;;;8.90;99.90;;;;;;2617468;47;19947;-75
2023/12/29 02:45:16;;;;;;;;;;;8.80;99.90;;;;;;2617144;47;20061;-75
2023/12/29 02:47:47;;;;;;;;;;;8.80;99.90;;;;;;2621423;54;19954;-74
2023/12/29 02:50:17;;;;;;;;;;;8.70;99.90;;;;;;2617985;54;19938;-75
2023/12/29 02:52:47;;;;;;;;;;;8.70;99.90;;;;;;2617355;54;19939;-75
2023/12/29 02:55:19;;;;;;;;;;;8.70;99.90;;;;;;2623514;47;19946;-75
2023/12/29 02:57:50;;;;;;;;;;;8.70;99.90;;;;;;2617390;54;19965;-75
2023/12/29 03:00:20;;;;;;;;;;;8.70;99.90;;;;;;2618732;47;19938;-74
2023/12/29 03:02:50;;;;;;;;;;;8.70;99.90;;;;;;2622370;54;19962;-75
2023/12/29 03:05:19;;;;;;;;;;;8.60;99.90;;;;;;2617582;47;19946;-75
2023/12/29 03:07:49;;;;;;;;;;;8.60;99.90;;;;;;2617665;50;19958;-75
2023/12/29 03:10:22;;;;;;;;;;;8.60;99.90;;;;;;2618146;39;20386;-75
2023/12/29 03:12:52;;;;;;;;;;;8.60;99.90;;;;;;2617801;47;19954;-75
2023/12/29 03:15:22;;;;;;;;;;;8.60;99.90;;;;;;2617977;47;19953;-75
2023/12/29 03:17:51;;;;;;;;;;;8.60;99.90;;;;;;2620141;54;19957;-76
2023/12/29 03:20:21;;;;;;;;;;;8.60;99.90;;;;;;2618610;47;19986;-75
2023/12/29 03:22:51;;;;;;;;;;;8.60;99.90;;;;;;2618432;54;20065;-75
2023/12/29 03:25:24;;;;;;;;;;;8.60;99.90;;;;;;2619772;54;20046;-75
2023/12/29 03:27:54;;;;;;;;;;;8.60;99.90;;;;;;2617409;39;20114;-74
2023/12/29 03:30:24;;;;;;;;;;;8.60;99.90;;;;;;2618314;39;20507;-75
2023/12/29 03:32:53;;;;;;;;;;;8.50;99.90;;;;;;2617601;47;19961;-75
2023/12/29 03:35:23;;;;;;;;;;;8.60;99.90;;;;;;2617548;47;19946;-74
2023/12/29 03:37:53;;;;;;;;;;;8.60;99.90;;;;;;2617796;47;20041;-75
2023/12/29 03:40:26;;;;;;;;;;;8.50;99.90;;;;;;2616971;47;19946;-75
2023/12/29 03:42:55;;;;;;;;;;;8.50;99.90;;;;;;2617073;47;20073;-75
2023/12/29 03:45:26;;;;;;;;;;;8.50;99.90;;;;;;2616535;49;19946;-75
2023/12/29 03:47:56;;;;;;;;;;;8.50;99.90;;;;;;2617459;54;19953;-76
2023/12/29 03:50:26;;;;;;;;;;;8.50;99.90;;;;;;2619722;54;19935;-75
2023/12/29 03:52:56;;;;;;;;;;;8.50;99.90;;;;;;2618035;39;20355;-76
2023/12/29 03:55:28;;;;;;;;;;;8.50;99.90;;;;;;2617684;47;19992;-77
2023/12/29 03:57:58;;;;;;;;;;;8.50;99.90;;;;;;2616872;54;20487;-76
2023/12/29 04:00:29;;;;;;;;;;;8.40;99.90;;;;;;2616529;46;19962;-77
2023/12/29 04:02:59;;;;;;;;;;;8.40;99.90;;;;;;2616924;54;19992;-75
2023/12/29 04:05:28;;;;;;;;;;;8.40;99.90;;;;;;2617405;39;20363;-76
2023/12/29 04:07:58;;;;;;;;;;;8.40;99.90;;;;;;2620781;47;19955;-75
2023/12/29 04:10:31;;;;;;;;;;;8.40;99.90;;;;;;2622219;47;19958;-76
2023/12/29 04:13:01;;;;;;;;;;;8.40;99.90;;;;;;2622294;54;19958;-75
2023/12/29 04:15:31;;;;;;;;;;;8.40;99.90;;;;;;2620336;47;19951;-76
2023/12/29 04:18:01;;;;;;;;;;;8.50;99.90;;;;;;2620592;54;19938;-76
2023/12/29 04:20:31;;;;;;;;;;;9.90;99.90;;;;;;2624301;54;19951;-76
2023/12/29 04:23:01;;;;;;;;;;;8.50;99.90;;;;;;2618000;54;19947;-75
2023/12/29 04:25:34;;;;;;;;;;;8.50;99.90;;;;;;2616848;54;19939;-76
2023/12/29 04:28:04;;;;;;;;;;;8.50;99.90;;;;;;2620491;54;19938;-76
2023/12/29 04:30:33;;;;;;;;;;;8.60;99.90;;;;;;2618582;47;19946;-77
2023/12/29 04:33:04;;;;;;;;;;;8.50;99.90;;;;;;2618932;54;19959;-76
2023/12/29 04:35:33;;;;;;;;;;;8.50;99.90;;;;;;2623843;39;20343;-77
2023/12/29 04:38:03;;;;;;;;;;;8.60;99.90;;;;;;2624095;54;19946;-75
2023/12/29 04:40:36;;;;;;;;;;;8.60;99.90;;;;;;2620328;54;20038;-76
2023/12/29 04:43:06;;;;;;;;;;;8.60;99.90;;;;;;2616764;47;19946;-76
2023/12/29 04:45:36;;;;;;;;;;;8.60;99.90;;;;;;2617077;39;20328;-76
2023/12/29 04:48:06;;;;;;;;;;;8.60;99.90;;;;;;2617693;54;20053;-76
2023/12/29 04:50:36;;;;;;;;;;;8.70;99.90;;;;;;2617788;47;19938;-76
2023/12/29 04:53:06;;;;;;;;;;;8.70;99.90;;;;;;2618215;54;20447;-76
2023/12/29 04:55:39;;;;;;;;;;;8.70;99.90;;;;;;2620797;47;19946;-77
2023/12/29 04:58:08;;;;;;;;;;;8.80;99.90;;;;;;2618235;54;19946;-76
2023/12/29 05:00:38;;;;;;;;;;;8.80;99.90;;;;;;2619435;54;19946;-75
2023/12/29 05:03:08;;;;;;;;;;;8.80;99.90;;;;;;2618556;47;19954;-75
2023/12/29 05:05:39;;;;;;;;;;;8.90;99.90;;;;;;2617981;47;19946;-75
2023/12/29 05:08:09;;;;;;;;;;;8.90;99.90;;;;;;2622418;54;19951;-76
2023/12/29 05:10:41;;;;;;;;;;;8.90;99.90;;;;;;2618749;54;20061;-76
2023/12/29 05:13:11;;;;;;;;;;;8.90;99.90;;;;;;2618588;39;20325;-76
2023/12/29 05:15:41;;;;;;;;;;;8.90;99.90;;;;;;2617794;47;19947;-74
2023/12/29 05:18:11;;;;;;;;;;;8.90;99.90;;;;;;2619079;39;20361;-74
2023/12/29 05:20:41;;;;;;;;;;;8.90;99.90;;;;;;2617046;46;19973;-74
2023/12/29 05:23:11;;;;;;;;;;;8.90;99.90;;;;;;2618305;47;20417;-74
2023/12/29 05:25:44;;;;;;;;;;;9.00;99.90;;;;;;2616403;54;19954;-74
2023/12/29 05:28:14;;;;;;;;;;;8.90;99.90;;;;;;2617632;54;19958;-74
2023/12/29 05:30:44;;;;;;;;;;;8.90;99.90;;;;;;2618325;54;19954;-76
2023/12/29 05:33:14;;;;;;;;;;;8.90;99.90;;;;;;2617753;54;19950;-76
2023/12/29 05:35:43;;;;;;;;;;;8.90;99.90;;;;;;2625760;54;19957;-76
2023/12/29 05:38:13;;;;;;;;;;;8.90;99.90;;;;;;2621755;54;19947;-76
2023/12/29 05:40:46;;;;;;;;;;;8.80;99.90;;;;;;2618777;47;19946;-75
2023/12/29 05:43:17;;;;;;;;;;;8.80;99.90;;;;;;2617696;54;19938;-75
2023/12/29 05:45:47;;;;;;;;;;;8.80;99.90;;;;;;2616806;54;19939;-76
2023/12/29 05:48:16;;;;;;;;;;;8.80;99.90;;;;;;2617228;47;20021;-76
2023/12/29 05:50:46;;;;;;;;;;;8.80;99.90;;;;;;2617337;54;19939;-75
2023/12/29 05:53:16;;;;;;;;;;;8.80;99.90;;;;;;2617260;54;20013;-76
2023/12/29 05:55:49;;;;;;;;;;;8.80;99.90;;;;;;2616988;54;19958;-75
2023/12/29 05:58:19;;;;;;;;;;;8.80;99.90;;;;;;2619369;47;19946;-75
2023/12/29 06:00:49;;;;;;;;;;;8.90;99.90;;;;;;2618003;54;19947;-75
2023/12/29 06:03:19;;;;;;;;;;;8.90;99.90;;;;;;2618391;54;20444;-76
2023/12/29 06:05:48;;;;;;;;;;;9.00;99.90;;;;;;2617111;54;19946;-75
2023/12/29 06:08:18;;;;;;;;;;;9.00;99.90;;;;;;2617309;54;20013;-75
2023/12/29 06:10:51;;;;;;;;;;;9.00;99.90;;;;;;2617163;54;19961;-75
2023/12/29 06:13:21;;;;;;;;;;;9.00;99.90;;;;;;2618228;54;20104;-75
2023/12/29 06:15:50;;;;;;;;;;;9.10;99.90;;;;;;2617320;39;20332;-75
2023/12/29 06:18:20;;;;;;;;;;;9.10;99.90;;;;;;2617996;54;19952;-75
2023/12/29 06:20:50;;;;;;;;;;;9.20;99.90;;;;;;2618757;47;19939;-74
2023/12/29 06:23:20;;;;;;;;;;;9.20;99.90;;;;;;2621026;47;19947;-77
2023/12/29 06:25:53;;;;;;;;;;;9.20;99.90;;;;;;2627596;46;19953;-79
2023/12/29 06:28:23;;;;;;;;;;;9.20;99.90;;;;;;2625562;47;19935;-80
2023/12/29 06:30:53;;;;;;;;;;;9.20;99.90;;;;;;2619918;54;19946;-73
2023/12/29 06:33:23;;;;;;;;;;;9.30;99.90;;;;;;2617505;54;19938;-73
2023/12/29 06:35:54;;;;;;;;;;;9.30;99.90;;;;;;2617482;46;19946;-73
2023/12/29 06:38:23;;;;;;;;;;;9.30;99.90;;;;;;2618387;54;19945;-75
2023/12/29 06:40:56;;;;;;;;;;;9.40;99.90;;;;;;2617914;54;19947;-76
2023/12/29 06:43:25;;;;;;;;;;;9.40;99.90;;;;;;2617569;54;19947;-75
2023/12/29 06:45:57;;;;;;;;;;;9.40;99.90;;;;;;2619357;54;19946;-81
2023/12/29 06:48:27;;;;;;;;;;;9.40;99.90;;;;;;2621183;54;19939;-78
2023/12/29 06:50:57;;;;;;;;;;;9.40;99.90;;;;;;2619185;39;20048;-75
2023/12/29 06:53:26;;;;;;;;;;;9.40;99.90;;;;;;2617781;48;20046;-76
2023/12/29 06:55:58;;;;;;;;;;;9.40;99.90;;;;;;2616681;54;19947;-76
2023/12/29 06:58:28;;;;;;;;;;;9.50;99.90;;;;;;2617549;54;19947;-75
2023/12/29 07:00:58;;;;;;;;;;;9.50;99.90;;;;;;2615894;47;20041;-75
2023/12/29 07:03:28;;;;;;;;;;;9.50;99.90;;;;;;2617208;54;20895;-76
2023/12/29 07:05:58;;;;;;;;;;;9.60;99.90;;;;;;2620806;47;19946;-78
2023/12/29 07:08:27;;;;;;;;;;;9.60;99.90;;;;;;2618249;54;19939;-78
2023/12/29 07:10:59;;;;;;;;;;;9.60;99.90;;;;;;2618106;54;19954;-77
2023/12/29 07:13:29;;;;;;;;;;;9.60;99.90;;;;;;2622017;54;19958;-79
2023/12/29 07:15:59;;;;;;;;;;;9.60;99.90;;;;;;2622972;47;19946;-76
2023/12/29 07:18:29;;;;;;;;;;;9.70;99.90;;;;;;2621523;47;19946;-77
2023/12/29 07:20:59;;;;;;;;;;;9.70;99.90;;;;;;2620065;47;19980;-74
2023/12/29 07:23:28;;;;;;;;;;;9.70;99.90;;;;;;2617898;49;19939;-76
2023/12/29 07:26:00;;;;;;;;;;;9.80;99.90;;;;;;2616388;47;19954;-73
2023/12/29 07:28:30;;;;;;;;;;;9.80;99.90;;;;;;2616423;54;19947;-73
2023/12/29 07:31:00;;;;;;;;;;;9.80;99.90;;;;;;2616525;47;19958;-74
2023/12/29 07:33:30;;;;;;;;;;;9.80;99.90;;;;;;2618117;47;19961;-73
2023/12/29 07:35:59;;;;;;;;;;;9.80;99.90;;;;;;2616231;54;19938;-73
2023/12/29 07:38:29;;;;;;;;;;;9.90;99.90;;;;;;2616952;47;19947;-73
2023/12/29 07:41:01;;;;;;;;;;;9.90;99.90;;;;;;2616121;54;19976;-74
2023/12/29 07:43:31;;;;;;;;;;;9.90;99.90;;;;;;2617932;54;19947;-76
2023/12/29 07:46:01;;;;;;;;;;;10.00;99.90;;;;;;2619039;54;19942;-75
2023/12/29 07:48:30;;;;;;;;;;;10.00;99.90;;;;;;2618755;47;19939;-75
2023/12/29 07:51:05;;;;;;;;;;;10.00;99.90;;;;;;2617646;47;19979;-75
2023/12/29 07:53:35;;;;;;;;;;;10.00;99.90;;;;;;2617847;47;19945;-75
2023/12/29 07:56:08;;;;;;;;;;;10.00;99.90;;;;;;2617645;47;19939;-75
2023/12/29 07:58:38;;;;;;;;;;;10.00;99.90;;;;;;2618188;54;19958;-75
2023/12/29 08:01:10;;;;;;;;;;;10.00;99.90;;;;;;2618153;54;19938;-74
2023/12/29 08:03:39;;;;;;;;;;;10.10;99.90;;;;;;2617444;50;19939;-76
2023/12/29 08:06:09;;;;;;;;;;;10.10;99.90;;;;;;2617787;47;19954;-78
2023/12/29 08:08:39;;;;;;;;;;;10.10;99.90;;;;;;2618161;47;19953;-77
2023/12/29 08:11:14;;;;;;;;;;;10.10;99.90;;;;;;2617412;47;19950;-80
2023/12/29 08:13:45;;;;;;;;;;;10.10;99.90;;;;;;2618149;54;19946;-79
2023/12/29 08:16:17;;;;;;;;;;;10.20;99.90;;;;;;2618106;47;19947;-79
2023/12/29 08:18:47;;;;;;;;;;;10.20;99.90;;;;;;2622175;39;20608;-78
2023/12/29 08:21:20;;;;;;;;;;;10.20;99.90;;;;;;2620023;54;19946;-79
2023/12/29 08:23:50;;;;;;;;;;;10.20;99.90;;;;;;2617284;54;20037;-76
2023/12/29 08:26:23;;;;;;;;;;;10.20;99.90;;;;;;2617835;54;20449;-77
2023/12/29 08:28:52;;;;;;;;;;;10.40;99.90;;;;;;2620914;47;19962;-78
2023/12/29 08:31:22;;;;;;;;;;;10.20;99.90;;;;;;2622092;47;19954;-77
2023/12/29 08:33:52;;;;;;;;;;;10.20;99.90;;;;;;2619714;54;19947;-78
2023/12/29 08:36:23;;;;;;;;;;;10.30;99.90;;;;;;2622190;47;19946;-79
2023/12/29 08:38:52;;;;;;;;;;;10.30;99.90;;;;;;2624921;54;20050;-77
2023/12/29 08:41:25;;;;;;;;;;;10.30;99.90;;;;;;2625490;47;19947;-77
2023/12/29 08:43:54;;;;;;;;;;;10.40;99.90;;;;;;2625636;54;19991;-79
2023/12/29 08:46:25;;;;;;;;;;;10.40;99.90;;;;;;2625095;47;19938;-79
2023/12/29 08:48:55;;;;;;;;;;;10.30;99.90;;;;;;2622318;47;19943;-78
2023/12/29 08:51:25;;;;;;;;;;;10.40;99.90;;;;;;2621900;47;19946;-77
2023/12/29 08:53:55;;;;;;;;;;;10.40;99.90;;;;;;2620891;47;20018;-77
2023/12/29 08:56:29;;;;;;;;;;;10.40;99.90;;;;;;2621868;47;19992;-77
2023/12/29 08:58:58;;;;;;;;;;;10.50;99.90;;;;;;2621600;54;20034;-77
2023/12/29 09:01:28;;;;;;;;;;;10.50;99.90;;;;;;2620853;47;20524;-77
2023/12/29 09:03:58;;;;;;;;;;;10.50;99.90;;;;;;2622685;47;19972;-75
2023/12/29 09:06:28;;;;;;;;;;;10.50;99.90;;;;;;2628341;54;19939;-74
2023/12/29 09:08:58;;;;;;;;;;;10.50;99.90;;;;;;2624649;47;19946;-76
2023/12/29 09:11:30;;;;;;;;;;;10.50;99.90;;;;;;2624995;47;19957;-77
2023/12/29 09:13:59;;;;;;;;;;;10.50;99.90;;;;;;2621081;47;19952;-76
2023/12/29 09:16:29;;;;;;;;;;;10.60;99.90;;;;;;2619585;47;19953;-75
2023/12/29 09:18:59;;;;;;;;;;;10.60;99.90;;;;;;2617683;47;19939;-73
2023/12/29 09:21:28;;;;;;;;;;;10.40;99.90;;;;;;2618241;47;19947;-75
2023/12/29 09:23:58;;;;;;;;;;;10.60;99.90;;;;;;2619473;54;19969;-75
2023/12/29 09:26:31;;;;;;;;;;;10.60;99.90;;;;;;2623387;54;19952;-77
2023/12/29 09:29:00;;;;;;;;;;;10.60;99.90;;;;;;2623586;54;19947;-77
2023/12/29 09:31:30;;;;;;;;;;;10.70;99.90;;;;;;2623253;47;19952;-77
2023/12/29 09:34:00;;;;;;;;;;;10.60;99.90;;;;;;2622533;47;19939;-75
2023/12/29 09:36:30;;;;;;;;;;;10.70;99.90;;;;;;2623706;54;19939;-77
2023/12/29 09:39:00;;;;;;;;;;;10.60;99.90;;;;;;2622291;54;19939;-77
2023/12/29 09:41:33;;;;;;;;;;;10.50;99.90;;;;;;2622071;54;19951;-78
2023/12/29 09:44:04;;;;;;;;;;;10.60;99.90;;;;;;2624390;39;20504;-77
2023/12/29 09:46:34;;;;;;;;;;;10.60;99.90;;;;;;2622851;47;19946;-77
2023/12/29 09:49:05;;;;;;;;;;;10.70;99.90;;;;;;2623187;47;19946;-77
2023/12/29 09:51:35;;;;;;;;;;;10.70;99.90;;;;;;2622526;54;20550;-77
2023/12/29 09:54:05;;;;;;;;;;;10.70;99.90;;;;;;2621086;47;19939;-77
2023/12/29 09:56:37;;;;;;;;;;;10.70;99.90;;;;;;2623183;47;19947;-77
2023/12/29 09:59:09;;;;;;;;;;;10.70;99.90;;;;;;2619699;47;20433;-74
2023/12/29 10:01:39;;;;;;;;;;;10.70;99.90;;;;;;2620462;54;20007;-76
2023/12/29 10:04:09;;;;;;;;;;;10.80;99.90;;;;;;2622246;54;20009;-80
2023/12/29 10:06:42;;;;;;;;;;;10.60;99.90;;;;;;2624648;54;19945;-80
2023/12/29 10:09:13;;;;;;;;;;;10.70;99.90;;;;;;2624544;54;19992;-82
2023/12/29 10:11:48;;;;;;;;;;;11.80;99.90;;;;;;2626479;39;20426;-82
2023/12/29 10:14:24;;;;;;;;;;;11.10;99.90;;;;;;2626525;51;19939;-80
2023/12/29 10:16:57;;;;;;;;;;;10.70;99.90;;;;;;2624144;47;19977;-80
2023/12/29 10:19:32;;;;;;;;;;;10.70;99.90;;;;;;2629960;54;19949;-81
2023/12/29 10:22:05;;;;;;;;;;;10.90;99.90;;;;;;2633067;31;20566;-80
2023/12/29 10:24:35;;;;;;;;;;;10.70;99.90;;;;;;2630172;54;19951;-80
2023/12/29 10:27:08;;;;;;;;;;;10.80;99.90;;;;;;2630743;54;19986;-78
2023/12/29 10:29:38;;;;;;;;;;;10.80;99.90;;;;;;2630929;54;19961;-80
2023/12/29 10:32:09;;;;;;;;;;;10.80;99.90;;;;;;2629227;47;19946;-82
2023/12/29 10:34:39;;;;;;;;;;;10.80;99.90;;;;;;2629192;47;19942;-84
2023/12/29 10:37:13;;;;;;;;;;;10.20;99.90;;;;;;2625088;46;19950;-79
2023/12/29 10:39:57;;;;;;;;;;;10.80;99.90;;;;;;2623645;54;19946;-82
2023/12/29 10:42:29;;;;;;;;;;;10.80;99.90;;;;;;2621334;46;19954;-78
2023/12/29 10:45:07;;;;;;;;;;;10.80;99.90;;;;;;2617855;54;19947;-79
2023/12/29 10:47:38;;;;;;;;;;;11.70;99.90;;;;;;2619855;54;19946;-78
2023/12/29 10:50:08;;;;;;;;;;;10.80;99.90;;;;;;2619473;54;19946;-75
2023/12/29 10:52:40;;;;;;;;;;;10.90;99.90;;;;;;2620601;39;20341;-79
2023/12/29 10:55:11;;;;;;;;;;;11.00;99.90;;;;;;2622194;54;20038;-78
2023/12/29 10:57:44;;;;;;;;;;;11.10;99.90;;;;;;2623701;54;19973;-77
2023/12/29 11:00:16;;;;;;;;;;;11.40;99.90;;;;;;2619871;47;19938;-75
2023/12/29 11:02:56;;;;;;;;;;;11.20;99.90;;;;;;2617932;31;20402;-77
2023/12/29 11:05:27;;;;;;;;;;;11.20;99.90;;;;;;2617313;39;20655;-75
2023/12/29 11:07:58;;;;;;;;;;;11.30;99.90;;;;;;2617095;47;19947;-75
2023/12/29 11:10:28;;;;;;;;;;;11.20;99.90;;;;;;2618386;54;19946;-77
2023/12/29 11:13:01;;;;;;;;;;;11.20;99.90;;;;;;2617304;47;19947;-77
2023/12/29 11:20:48;;;;;;;;;;;11.10;99.90;;;;;;2612089;54;19957;-75
2023/12/29 11:23:19;;;;;;;;;;;10.30;99.90;;;;;;2623917;39;20035;-76
2023/12/29 11:25:48;;;;;;;;;;;11.00;99.90;;;;;;2622867;47;19950;-77
2023/12/29 11:28:21;;;;;;;;;;;11.00;99.90;;;;;;2623143;47;19964;-78
2023/12/29 11:30:52;;;;;;;;;;;11.00;99.90;;;;;;2620134;47;19998;-74
2023/12/29 11:33:25;;;;;;;;;;;11.00;99.90;;;;;;2618121;47;19947;-73
2023/12/29 11:35:57;;;;;;;;;;;10.90;99.90;;;;;;2618593;48;19947;-75
2023/12/29 11:38:35;;;;;;;;;;;11.00;99.90;;;;;;2619292;39;20329;-72
2023/12/29 22:49:46;;;;;;;;;;;10.90;99.90;;;;;;2595313;46;20448;-72
2023/12/29 22:52:16;;;;;;;;;;;10.00;99.90;;;;;;2620818;54;20436;-73
2023/12/29 22:54:45;;;;;;;;;;;9.90;99.90;;;;;;2622958;54;19938;-73
2023/12/29 22:57:15;;;;;;;;;;;9.90;99.90;;;;;;2619272;47;19939;-73
2023/12/29 22:59:45;;;;;;;;;;;9.90;99.90;;;;;;2618376;47;19946;-74
2023/12/29 23:02:16;;;;;;;;;;;9.90;99.90;;;;;;2619383;54;19958;-72
2023/12/29 23:04:49;;;;;;;;;;;9.90;99.90;;;;;;2618802;47;19947;-72
2023/12/29 23:07:18;;;;;;;;;;;9.90;99.90;;;;;;2618357;54;20444;-73
2023/12/29 23:09:48;;;;;;;;;;;9.80;99.90;;;;;;2618111;54;19957;-74
2023/12/29 23:12:18;;;;;;;;;;;9.80;99.90;;;;;;2617873;47;19953;-73
2023/12/29 23:14:48;;;;;;;;;;;9.80;99.90;;;;;;2618008;47;19954;-72
2023/12/29 23:17:17;;;;;;;;;;;9.80;99.90;;;;;;2618738;47;19945;-73
2023/12/29 23:19:50;;;;;;;;;;;9.70;99.90;;;;;;2618155;47;19953;-72
2023/12/29 23:22:19;;;;;;;;;;;9.80;99.90;;;;;;2617339;54;19947;-72
2023/12/29 23:24:49;;;;;;;;;;;9.80;99.90;;;;;;2617863;47;19996;-72
2023/12/29 23:27:19;;;;;;;;;;;9.80;99.90;;;;;;2618340;47;19953;-72
2023/12/29 23:29:48;;;;;;;;;;;9.80;99.90;;;;;;2623079;54;20460;-73
2023/12/29 23:32:19;;;;;;;;;;;9.80;99.90;;;;;;2623338;54;19950;-74
2023/12/29 23:34:51;;;;;;;;;;;9.70;99.90;;;;;;2621380;47;19938;-72
2023/12/29 23:37:21;;;;;;;;;;;9.70;99.90;;;;;;2618359;47;19950;-73
2023/12/29 23:39:51;;;;;;;;;;;9.70;99.90;;;;;;2617986;47;20527;-73
2023/12/29 23:42:21;;;;;;;;;;;9.70;99.90;;;;;;2619530;47;19938;-73
2023/12/29 23:44:51;;;;;;;;;;;9.60;99.90;;;;;;2616971;54;19950;-73
2023/12/29 23:47:20;;;;;;;;;;;9.60;99.90;;;;;;2618796;54;20057;-73
2023/12/29 23:49:53;;;;;;;;;;;9.60;99.90;;;;;;2618071;47;19946;-73
2023/12/29 23:52:23;;;;;;;;;;;9.60;99.90;;;;;;2618090;47;20433;-73
2023/12/29 23:54:53;;;;;;;;;;;9.50;99.90;;;;;;2618448;31;20437;-73
2023/12/29 23:57:23;;;;;;;;;;;9.50;99.90;;;;;;2618557;39;20387;-73
2023/12/29 23:59:52;;;;;;;;;;;9.50;99.90;;;;;;2618335;39;20343;-73
